New Kowloon, China
Current Conditions -  °F | °C
As of 9:30 PM on Saturday 20 Dec 2014 (Local Time) from VHHH Reporting Station
Clear Clear  
Wind Chill: 63°   Ceiling: Unl
Heat Index: 63°   Visibility: 6mi
Dew Point: 52°   Wind: 12mph
Humidity: 68%   Direction: 110°ESE
Pressure: 30.12"   Gusts: NA
Location:  22.33°N, 114.15°E
Report Text: VHHH 201330Z 11010KT CAVOK 17/11 Q1020 NOSIG
Loading
Personal Weather Stations






























Interactive Weather Map New forecast layout! Learn more

10-Day Weather Forecast

Advertisements
Track Severe Weather on mobile